createdAt,value
2023-04-01T00:01:53.414Z,97953.25
2023-04-01T00:04:21.756Z,97960.69
2023-04-01T00:06:49.328Z,97953.13
2023-04-01T00:09:16.846Z,97953.78
2023-04-01T00:11:45.637Z,97945.97
2023-04-01T00:14:12.987Z,97941.84
2023-04-01T00:16:40.618Z,97945.31
2023-04-01T00:19:09.438Z,97945.31
2023-04-01T00:21:37.954Z,97942.78
2023-04-01T00:24:05.657Z,97945.31
2023-04-01T00:26:33.018Z,97939.59
2023-04-01T00:29:00.384Z,97936.25
2023-04-01T00:31:27.591Z,97942.09
2023-04-01T00:33:55.029Z,97937.88
2023-04-01T00:36:24.464Z,97935.34
2023-04-01T00:38:52.808Z,97932.03
2023-04-01T00:41:22.332Z,97942.09
2023-04-01T00:43:52.413Z,97924.34
2023-04-01T00:46:20.000Z,97936.81
2023-04-01T00:48:52.335Z,97931.78
2023-04-01T00:51:24.988Z,97904.19
2023-04-01T00:53:53.649Z,97928.88
2023-04-01T00:56:26.290Z,97922.75
2023-04-01T00:59:00.000Z,97925.16
2023-04-01T01:01:29.020Z,97936.66
2023-04-01T01:03:56.549Z,97932.81
2023-04-01T01:06:41.001Z,97927.66
2023-04-01T01:09:21.065Z,97932.41
2023-04-01T01:11:53.084Z,97935.22
2023-04-01T01:14:32.933Z,97940.50
2023-04-01T01:17:07.572Z,97933.59
2023-04-01T01:20:23.057Z,97941.69
2023-04-01T01:23:29.573Z,97944.19
2023-04-01T01:26:11.214Z,97935.72
2023-04-01T01:28:51.443Z,97938.91
2023-04-01T01:31:24.502Z,97937.22
2023-04-01T01:34:08.187Z,97941.28
2023-04-01T01:36:40.197Z,97939.72
2023-04-01T01:39:12.085Z,97949.78
2023-04-01T01:41:42.603Z,97935.84
2023-04-01T01:44:12.671Z,97943.28
2023-04-01T01:46:42.332Z,97936.00
2023-04-01T01:49:12.756Z,97943.56
2023-04-01T01:51:41.606Z,97940.75
2023-04-01T01:54:13.940Z,97933.88
2023-04-01T01:56:45.846Z,97934.94
2023-04-01T01:59:16.066Z,97920.50
2023-04-01T02:01:46.870Z,97918.47
2023-04-01T02:04:18.437Z,97937.03
2023-04-01T02:06:53.607Z,97945.50
2023-04-01T02:09:21.640Z,97949.50
2023-04-01T02:11:53.003Z,97945.78
2023-04-01T02:14:23.853Z,97948.03
2023-04-01T02:16:55.697Z,97947.13
2023-04-01T02:19:27.703Z,97951.34
2023-04-01T02:22:00.664Z,97952.94
2023-04-01T02:24:31.388Z,97951.91
2023-04-01T02:26:59.191Z,97958.50
2023-04-01T02:29:28.797Z,97963.41
2023-04-01T02:31:56.522Z,97962.72
2023-04-01T02:34:26.098Z,97958.75
2023-04-01T02:36:55.055Z,97957.16
2023-04-01T02:39:24.034Z,97955.72
2023-04-01T02:41:51.500Z,97964.34
2023-04-01T02:44:18.879Z,97954.94
2023-04-01T02:46:46.296Z,97959.19
2023-04-01T02:49:13.891Z,97958.38
2023-04-01T02:51:41.283Z,97963.41
2023-04-01T02:54:08.747Z,97962.88
2023-04-01T02:56:37.490Z,97957.69
2023-04-01T02:59:05.007Z,97964.22
2023-04-01T03:01:32.553Z,97967.25
2023-04-01T03:04:00.183Z,97964.75
2023-04-01T03:06:27.695Z,97958.09
2023-04-01T03:08:55.108Z,97971.38
2023-04-01T03:11:22.461Z,97968.31
2023-04-01T03:13:51.395Z,97968.44
2023-04-01T03:16:18.653Z,97970.97
2023-04-01T03:18:46.085Z,97980.50
2023-04-01T03:21:17.780Z,97973.59
2023-04-01T03:23:45.424Z,97985.53
2023-04-01T03:26:14.516Z,97988.97
2023-04-01T03:28:42.401Z,97984.22
2023-04-01T03:31:11.701Z,97984.22
2023-04-01T03:33:45.174Z,97986.34
2023-04-01T03:36:13.910Z,97985.28
2023-04-01T03:38:42.147Z,97991.00
2023-04-01T03:41:13.602Z,97993.50
2023-04-01T03:43:41.228Z,97998.28
2023-04-01T03:46:08.530Z,98001.47
2023-04-01T03:48:37.553Z,98009.16
2023-04-01T03:51:08.782Z,98007.81
2023-04-01T03:53:36.140Z,98016.81
2023-04-01T03:56:06.574Z,98018.41
2023-04-01T03:58:36.391Z,98020.81
2023-04-01T04:01:15.202Z,98011.25
2023-04-01T04:03:45.347Z,98013.38
2023-04-01T04:06:14.349Z,98021.34
2023-04-01T04:08:41.771Z,98030.75
2023-04-01T04:11:10.002Z,98025.84
2023-04-01T04:13:40.314Z,98033.25
2023-04-01T04:16:08.284Z,98033.03
2023-04-01T04:18:38.540Z,98020.03
2023-04-01T04:21:07.514Z,98035.94
2023-04-01T04:23:34.881Z,98035.69
2023-04-01T04:26:06.986Z,98027.19
2023-04-01T04:28:34.954Z,98043.91
2023-04-01T04:31:02.824Z,98041.25
2023-04-01T04:33:30.414Z,98043.91
2023-04-01T04:35:59.257Z,98040.47
2023-04-01T04:38:28.662Z,98041.53
2023-04-01T04:40:56.795Z,98038.19
2023-04-01T04:43:24.239Z,98046.84
2023-04-01T04:45:52.288Z,98054.81
2023-04-01T04:48:21.360Z,98055.47
2023-04-01T04:50:51.235Z,98057.72
2023-04-01T04:53:20.837Z,98062.38
2023-04-01T04:55:51.226Z,98068.06
2023-04-01T04:58:27.980Z,98067.94
2023-04-01T05:00:55.964Z,98062.78
2023-04-01T05:03:28.633Z,98062.50
2023-04-01T05:05:56.368Z,98066.38
2023-04-01T05:08:23.741Z,98073.69
2023-04-01T05:10:52.541Z,98073.69
2023-04-01T05:13:19.979Z,98064.41
2023-04-01T05:15:48.903Z,98081.66
2023-04-01T05:18:17.500Z,98075.41
2023-04-01T05:20:48.896Z,98082.97
2023-04-01T05:23:16.570Z,98085.50
2023-04-01T05:25:46.394Z,98084.19
2023-04-01T05:28:15.641Z,98089.09
2023-04-01T05:30:45.999Z,98089.09
2023-04-01T05:33:25.263Z,98090.84
2023-04-01T05:35:53.004Z,98085.53
2023-04-01T05:38:20.585Z,98084.22
2023-04-01T05:40:47.912Z,98087.38
2023-04-01T05:43:17.306Z,98097.34
2023-04-01T05:45:47.380Z,98091.00
2023-04-01T05:48:14.946Z,98097.63
2023-04-01T05:50:43.169Z,98094.31
2023-04-01T05:53:12.106Z,98100.28
2023-04-01T05:55:42.700Z,98096.31
2023-04-01T05:58:10.057Z,98105.06
2023-04-01T06:00:41.326Z,98108.00
2023-04-01T06:03:08.815Z,98106.91
2023-04-01T06:05:40.905Z,98108.25
2023-04-01T06:08:13.404Z,98114.59
2023-04-01T06:10:53.294Z,98119.41
2023-04-01T06:13:31.583Z,98118.59
2023-04-01T06:16:07.394Z,98120.31
2023-04-01T06:18:56.683Z,98125.25
2023-04-01T06:21:53.857Z,98125.25
2023-04-01T06:24:40.136Z,98123.66
2023-04-01T06:27:14.171Z,98133.22
2023-04-01T06:30:02.245Z,98130.81
2023-04-01T06:32:51.184Z,98124.69
2023-04-01T06:35:37.240Z,98119.53
2023-04-01T06:38:37.439Z,98129.91
2023-04-01T06:41:29.575Z,98129.75
2023-04-01T06:44:10.374Z,98134.41
2023-04-01T06:47:00.399Z,98136.94
2023-04-01T06:49:57.031Z,98142.91
2023-04-01T06:52:52.680Z,98140.09
2023-04-01T06:55:43.275Z,98140.50
2023-04-01T06:58:22.025Z,98146.72
2023-04-01T07:00:53.278Z,98149.50
2023-04-01T07:03:26.379Z,98153.41
2023-04-01T07:06:00.864Z,98147.69
2023-04-01T07:08:31.070Z,98140.94
2023-04-01T07:11:03.075Z,98162.31
2023-04-01T07:13:54.178Z,98154.16
2023-04-01T07:16:28.298Z,98153.31
2023-04-01T07:19:02.088Z,98141.97
2023-04-01T07:21:48.533Z,98161.47
2023-04-01T07:24:27.213Z,98160.88
2023-04-01T07:27:10.005Z,98168.00
2023-04-01T07:29:38.515Z,98168.00
2023-04-01T07:32:15.909Z,98165.47
2023-04-01T07:34:57.320Z,98134.75
2023-04-01T07:37:32.651Z,98152.75
2023-04-01T07:40:14.300Z,98160.34
2023-04-01T07:42:55.993Z,98169.06
2023-04-01T07:45:30.666Z,98168.44
2023-04-01T07:48:09.282Z,98147.53
2023-04-01T07:50:41.756Z,98175.28
2023-04-01T07:53:20.951Z,98174.88
2023-04-01T07:55:59.990Z,98186.78
2023-04-01T07:58:33.405Z,98155.81
2023-04-01T08:01:06.890Z,98176.56
2023-04-01T08:04:02.576Z,98190.41
2023-04-01T08:06:37.149Z,98184.75
2023-04-01T08:09:17.802Z,98191.38
2023-04-01T08:12:14.716Z,98195.53
2023-04-01T08:15:14.235Z,98195.28
2023-04-01T08:18:16.000Z,98201.75
2023-04-01T08:20:48.794Z,98195.38
2023-04-01T08:23:18.268Z,98199.75
2023-04-01T08:25:52.735Z,98199.47
2023-04-01T08:28:29.191Z,98209.34
2023-04-01T08:31:01.671Z,98210.34
2023-04-01T08:33:31.795Z,98203.63
2023-04-01T08:36:16.512Z,98207.03
2023-04-01T08:38:54.561Z,98211.16
2023-04-01T08:41:36.632Z,98215.28
2023-04-01T08:45:09.234Z,98214.31
2023-04-01T08:47:57.839Z,98209.75
2023-04-01T08:50:39.133Z,98208.94
2023-04-01T08:53:31.674Z,98210.53
2023-04-01T08:56:11.728Z,98213.41
2023-04-01T08:59:07.567Z,98213.53
2023-04-01T09:01:49.570Z,98215.28
2023-04-01T09:05:21.143Z,98224.41
2023-04-01T09:07:59.115Z,98214.84
2023-04-01T09:11:09.331Z,98219.41
2023-04-01T09:14:35.780Z,98231.09
2023-04-01T09:17:37.158Z,98229.66
2023-04-01T09:20:27.078Z,98218.34
2023-04-01T09:23:17.095Z,98232.59
2023-04-01T09:26:05.198Z,98235.25
2023-04-01T09:28:46.168Z,98228.44
2023-04-01T09:31:39.925Z,98240.53
2023-04-01T09:34:54.302Z,98242.59
2023-04-01T09:37:35.648Z,98246.38
2023-04-01T09:40:21.007Z,98252.56
2023-04-01T09:43:28.125Z,98256.47
2023-04-01T09:46:15.972Z,98254.22
2023-04-01T09:49:14.835Z,98268.41
2023-04-01T09:51:55.905Z,98262.91
2023-04-01T09:54:42.513Z,98257.38
2023-04-01T09:57:50.034Z,98264.31
2023-04-01T10:01:17.606Z,98251.03
2023-04-01T10:04:24.244Z,98266.88
2023-04-01T10:07:29.322Z,98268.56
2023-04-01T10:10:33.930Z,98269.06
2023-04-01T10:13:37.766Z,98270.00
2023-04-01T10:16:24.328Z,98268.69
2023-04-01T10:19:12.283Z,98271.59
2023-04-01T10:22:04.178Z,98266.81
2023-04-01T10:25:05.551Z,98266.38
2023-04-01T10:27:59.234Z,98277.72
2023-04-01T10:31:46.285Z,98269.72
2023-04-01T10:34:44.362Z,98269.97
2023-04-01T10:37:25.396Z,98280.53
2023-04-01T10:40:34.159Z,98281.59
2023-04-01T10:44:00.833Z,98282.28
2023-04-01T10:47:03.982Z,98280.72
2023-04-01T10:50:23.207Z,98288.66
2023-04-01T10:53:35.230Z,98291.47
2023-04-01T10:56:45.909Z,98294.25
2023-04-01T11:00:03.091Z,98291.22
2023-04-01T11:03:32.469Z,98297.00
2023-04-01T11:07:00.332Z,98293.50
2023-04-01T11:10:03.700Z,98302.28
2023-04-01T11:13:17.614Z,98290.84
2023-04-01T11:16:32.629Z,98293.50
2023-04-01T11:19:19.871Z,98284.69
2023-04-01T11:22:24.715Z,98293.75
2023-04-01T11:25:31.515Z,98292.44
2023-04-01T11:28:46.432Z,98295.84
2023-04-01T11:31:36.463Z,98293.47
2023-04-01T11:34:15.351Z,98295.50
2023-04-01T11:36:48.600Z,98301.50
2023-04-01T11:39:31.345Z,98297.09
2023-04-01T11:42:34.078Z,98305.78
2023-04-01T11:45:31.505Z,98302.28
2023-04-01T11:48:15.094Z,98300.44
2023-04-01T11:50:58.755Z,98307.75
2023-04-01T11:53:37.889Z,98309.22
2023-04-01T11:56:15.533Z,98299.78
2023-04-01T11:59:10.417Z,98293.94
2023-04-01T12:01:46.218Z,98304.94
2023-04-01T12:04:41.531Z,98308.34
2023-04-01T12:07:20.392Z,98307.50
2023-04-01T12:09:50.846Z,98315.72
2023-04-01T12:12:28.893Z,98303.66
2023-04-01T12:15:09.656Z,98307.56
2023-04-01T12:17:47.503Z,98311.59
2023-04-01T12:20:27.824Z,98312.94
2023-04-01T12:23:07.686Z,98316.34
2023-04-01T12:26:01.729Z,98293.94
2023-04-01T12:28:42.153Z,98318.25
2023-04-01T12:31:27.477Z,98326.22
2023-04-01T12:34:16.022Z,98330.56
2023-04-01T12:36:56.753Z,98321.50
2023-04-01T12:39:49.352Z,98328.44
2023-04-01T12:42:31.608Z,98334.06
2023-04-01T12:45:14.030Z,98331.25
2023-04-01T12:48:01.950Z,98328.66
2023-04-01T12:50:47.616Z,98333.69
2023-04-01T12:53:35.819Z,98327.53
2023-04-01T12:56:11.026Z,98334.13
2023-04-01T12:59:01.248Z,98334.91
2023-04-01T13:01:53.858Z,98342.75
2023-04-01T13:05:03.022Z,98348.06
2023-04-01T13:07:54.618Z,98346.38
2023-04-01T13:10:35.207Z,98354.72
2023-04-01T13:13:28.356Z,98362.59
2023-04-01T13:16:02.690Z,98349.84
2023-04-01T13:18:39.610Z,98342.06
2023-04-01T13:21:17.261Z,98357.19
2023-04-01T13:23:56.610Z,98360.03
2023-04-01T13:26:31.465Z,98348.50
2023-04-01T13:29:07.129Z,98363.94
2023-04-01T13:31:56.454Z,98366.19
2023-04-01T13:34:38.276Z,98377.34
2023-04-01T13:37:21.204Z,98379.91
2023-04-01T13:40:21.017Z,98371.47
2023-04-01T13:42:54.654Z,98368.94
2023-04-01T13:45:27.043Z,98381.81
2023-04-01T13:48:20.585Z,98387.53
2023-04-01T13:51:21.217Z,98390.72
2023-04-01T13:54:13.789Z,98397.22
2023-04-01T13:56:50.523Z,98385.94
2023-04-01T13:59:56.236Z,98375.44
2023-04-01T14:02:46.231Z,98388.81
2023-04-01T14:05:43.407Z,98396.47
2023-04-01T14:08:22.101Z,98391.38
2023-04-01T14:11:03.459Z,98391.38
2023-04-01T14:13:38.081Z,98407.31
2023-04-01T14:16:47.548Z,98409.88
2023-04-01T14:19:31.756Z,98389.16
2023-04-01T14:22:14.211Z,98405.84
2023-04-01T14:24:59.410Z,98398.56
2023-04-01T14:27:52.393Z,98411.13
2023-04-01T14:30:41.635Z,98415.09
2023-04-01T14:33:24.391Z,98418.28
2023-04-01T14:36:05.420Z,98407.28
2023-04-01T14:38:54.025Z,98415.44
2023-04-01T14:41:36.059Z,98416.53
2023-04-01T14:44:24.988Z,98415.44
2023-04-01T14:47:19.550Z,98432.91
2023-04-01T14:49:49.870Z,98418.91
2023-04-01T14:52:24.244Z,98426.38
2023-04-01T14:54:53.017Z,98440.03
2023-04-01T14:57:25.730Z,98423.78
2023-04-01T15:00:01.168Z,98432.72
2023-04-01T15:02:52.834Z,98441.75
2023-04-01T15:05:34.661Z,98442.56
2023-04-01T15:08:08.236Z,98440.00
2023-04-01T15:10:57.359Z,98445.75
2023-04-01T15:13:38.398Z,98444.78
2023-04-01T15:16:18.715Z,98450.66
2023-04-01T15:18:55.324Z,98456.22
2023-04-01T15:21:49.716Z,98457.50
2023-04-01T15:24:24.792Z,98451.16
2023-04-01T15:27:20.632Z,98462.28
2023-04-01T15:30:06.571Z,98456.41
2023-04-01T15:32:51.546Z,98479.91
2023-04-01T15:35:36.811Z,98473.56
2023-04-01T15:38:13.141Z,98477.53
2023-04-01T15:40:45.675Z,98469.25
2023-04-01T15:43:16.836Z,98483.56
2023-04-01T15:45:54.068Z,98486.44
2023-04-01T15:48:47.124Z,98480.69
2023-04-01T15:51:41.102Z,98488.66
2023-04-01T15:54:34.127Z,98497.84
2023-04-01T15:57:17.669Z,98501.69
2023-04-01T16:00:22.501Z,98513.44
2023-04-01T16:02:54.584Z,98513.44
2023-04-01T16:05:32.503Z,98513.09
2023-04-01T16:08:20.730Z,98515.41
2023-04-01T16:11:07.413Z,98498.41
2023-04-01T16:13:50.637Z,98513.91
2023-04-01T16:16:31.451Z,98517.25
2023-04-01T16:19:11.856Z,98509.63
2023-04-01T16:21:47.258Z,98530.91
2023-04-01T16:24:24.475Z,98539.94
2023-04-01T16:26:57.627Z,98529.69
2023-04-01T16:29:34.824Z,98539.59
2023-04-01T16:32:20.329Z,98534.56
2023-04-01T16:35:01.423Z,98534.13
2023-04-01T16:37:38.648Z,98547.69
2023-04-01T16:40:18.564Z,98543.59
2023-04-01T16:42:52.366Z,98553.97
2023-04-01T16:45:34.381Z,98547.00
2023-04-01T16:48:10.850Z,98545.44
2023-04-01T16:50:50.198Z,98539.34
2023-04-01T16:53:26.345Z,98562.81
2023-04-01T16:56:06.215Z,98549.25
2023-04-01T16:58:37.333Z,98549.09
2023-04-01T17:01:12.650Z,98560.28
2023-04-01T17:03:45.042Z,98559.06
2023-04-01T17:06:25.793Z,98560.94
2023-04-01T17:09:12.472Z,98554.41
2023-04-01T17:11:48.543Z,98554.63
2023-04-01T17:14:25.136Z,98564.34
2023-04-01T17:17:04.675Z,98566.09
2023-04-01T17:19:48.761Z,98573.00
2023-04-01T17:22:28.369Z,98563.94
2023-04-01T17:25:12.734Z,98565.88
2023-04-01T17:27:49.575Z,98551.81
2023-04-01T17:30:30.132Z,98564.13
2023-04-01T17:33:18.773Z,98563.19
2023-04-01T17:35:56.101Z,98568.56
2023-04-01T17:38:33.870Z,98571.25
2023-04-01T17:41:13.134Z,98581.25
2023-04-01T17:43:49.596Z,98594.47
2023-04-01T17:46:36.928Z,98584.00
2023-04-01T17:49:19.201Z,98570.31
2023-04-01T17:51:53.667Z,98583.38
2023-04-01T17:54:31.447Z,98578.00
2023-04-01T17:57:24.611Z,98590.00
2023-04-01T18:00:02.652Z,98583.63
2023-04-01T18:02:51.744Z,98594.75
2023-04-01T18:05:28.803Z,98588.28
2023-04-01T18:08:13.725Z,98588.44
2023-04-01T18:10:53.486Z,98593.22
2023-04-01T18:13:47.312Z,98591.47
2023-04-01T18:16:39.677Z,98603.06
2023-04-01T18:19:16.217Z,98591.91
2023-04-01T18:21:48.232Z,98605.25
2023-04-01T18:24:25.872Z,98614.75
2023-04-01T18:27:05.342Z,98612.59
2023-04-01T18:29:41.177Z,98621.94
2023-04-01T18:32:28.505Z,98637.41
2023-04-01T18:35:03.685Z,98629.13
2023-04-01T18:37:38.295Z,98633.25
2023-04-01T18:40:18.330Z,98628.31
2023-04-01T18:42:58.484Z,98619.25
2023-04-01T18:45:33.179Z,98623.19
2023-04-01T18:48:12.196Z,98646.19
2023-04-01T18:50:45.196Z,98631.34
2023-04-01T18:53:24.274Z,98638.72
2023-04-01T18:55:57.231Z,98627.53
2023-04-01T18:58:30.764Z,98637.09
2023-04-01T19:01:12.367Z,98643.78
2023-04-01T19:03:47.435Z,98646.31
2023-04-01T19:06:21.397Z,98641.50
2023-04-01T19:08:48.862Z,98644.06
2023-04-01T19:11:25.678Z,98640.75
2023-04-01T19:14:03.474Z,98642.31
2023-04-01T19:16:45.048Z,98627.81
2023-04-01T19:19:23.750Z,98639.63
2023-04-01T19:21:57.506Z,98649.50
2023-04-01T19:24:46.631Z,98653.38
2023-04-01T19:27:26.865Z,98647.19
2023-04-01T19:30:08.565Z,98661.50
2023-04-01T19:32:49.287Z,98659.66
2023-04-01T19:35:30.396Z,98664.09
2023-04-01T19:38:06.389Z,98669.31
2023-04-01T19:40:44.995Z,98668.88
2023-04-01T19:43:24.141Z,98652.09
2023-04-01T19:45:53.281Z,98661.13
2023-04-01T19:48:40.758Z,98657.78
2023-04-01T19:51:12.756Z,98674.69
2023-04-01T19:53:46.888Z,98672.44
2023-04-01T19:56:17.996Z,98668.16
2023-04-01T19:58:52.769Z,98676.06
2023-04-01T20:01:32.063Z,98666.44
2023-04-01T20:04:13.648Z,98670.84
2023-04-01T20:06:51.900Z,98665.41
2023-04-01T20:09:50.394Z,98678.69
2023-04-01T20:12:32.425Z,98671.72
2023-04-01T20:15:04.862Z,98672.53
2023-04-01T20:17:40.027Z,98653.88
2023-04-01T20:20:21.644Z,98660.81
2023-04-01T20:23:07.438Z,98682.97
2023-04-01T20:25:40.513Z,98674.56
2023-04-01T20:28:14.520Z,98676.16
2023-04-01T20:31:02.268Z,98682.31
2023-04-01T20:33:48.415Z,98665.09
2023-04-01T20:36:24.985Z,98681.66
2023-04-01T20:39:19.965Z,98683.91
2023-04-01T20:42:01.199Z,98688.19
2023-04-01T20:44:37.585Z,98691.53
2023-04-01T20:47:19.998Z,98681.38
2023-04-01T20:49:56.628Z,98657.41
2023-04-01T20:52:37.736Z,98676.28
2023-04-01T20:55:38.501Z,98676.28
2023-04-01T20:58:14.758Z,98680.44
2023-04-01T21:00:56.182Z,98667.75
2023-04-01T21:03:38.648Z,98679.88
2023-04-01T21:06:29.209Z,98683.19
2023-04-01T21:09:19.013Z,98688.78
2023-04-01T21:11:54.765Z,98681.31
2023-04-01T21:15:03.609Z,98688.63
2023-04-01T21:17:48.459Z,98687.81
2023-04-01T21:20:34.955Z,98678.91
2023-04-01T21:23:26.087Z,98702.41
2023-04-01T21:26:19.763Z,98690.91
2023-04-01T21:29:09.982Z,98678.91
2023-04-01T21:31:53.988Z,98693.97
2023-04-01T21:34:44.235Z,98702.38
2023-04-01T21:37:32.689Z,98702.53
2023-04-01T21:40:21.203Z,98699.97
2023-04-01T21:43:02.128Z,98695.84
2023-04-01T21:45:46.346Z,98688.63
2023-04-01T21:48:39.355Z,98712.25
2023-04-01T21:51:36.232Z,98716.81
2023-04-01T21:54:35.142Z,98721.09
2023-04-01T21:57:58.617Z,98731.00
2023-04-01T22:00:31.622Z,98706.69
2023-04-01T22:03:35.490Z,98715.75
2023-04-01T22:06:14.635Z,98719.50
2023-04-01T22:09:04.288Z,98716.41
2023-04-01T22:11:50.761Z,98711.28
2023-04-01T22:14:27.542Z,98720.56
2023-04-01T22:16:58.733Z,98718.97
2023-04-01T22:19:37.198Z,98723.25
2023-04-01T22:22:13.409Z,98702.34
2023-04-01T22:24:48.841Z,98722.88
2023-04-01T22:27:26.196Z,98719.81
2023-04-01T22:30:04.689Z,98722.66
2023-04-01T22:32:40.129Z,98728.00
2023-04-01T22:35:14.281Z,98731.63
2023-04-01T22:37:52.197Z,98730.31
2023-04-01T22:40:26.045Z,98727.41
2023-04-01T22:43:00.489Z,98718.63
2023-04-01T22:46:04.682Z,98728.78
2023-04-01T22:48:39.641Z,98720.41
2023-04-01T22:51:15.934Z,98713.84
2023-04-01T22:54:00.342Z,98739.31
2023-04-01T22:56:34.035Z,98736.78
2023-04-01T22:59:09.682Z,98734.88
2023-04-01T23:01:45.916Z,98716.88
2023-04-01T23:04:18.752Z,98732.84
2023-04-01T23:06:53.643Z,98730.97
2023-04-01T23:09:24.689Z,98740.19
2023-04-01T23:11:56.537Z,98710.03
2023-04-01T23:14:47.666Z,98736.19
2023-04-01T23:17:37.500Z,98741.13
2023-04-01T23:20:16.414Z,98738.09
2023-04-01T23:22:55.750Z,98739.81
2023-04-01T23:25:36.051Z,98733.00
2023-04-01T23:28:26.248Z,98728.31
2023-04-01T23:30:54.346Z,98734.19
2023-04-01T23:33:28.000Z,98739.09
2023-04-01T23:35:57.535Z,98732.44
2023-04-01T23:38:27.360Z,98747.38
2023-04-01T23:40:56.198Z,98733.00
2023-04-01T23:43:27.128Z,98743.91
2023-04-01T23:45:55.102Z,98742.97
2023-04-01T23:48:29.181Z,98747.75
2023-04-01T23:50:57.666Z,98747.75
2023-04-01T23:53:29.147Z,98733.75
2023-04-01T23:55:57.311Z,98748.44
2023-04-01T23:58:27.445Z,98749.19
